Orland Park, Illinois
Current Conditions -  °F | °C
As of 5:15 AM on Tuesday 21 Oct 2014 (Local Time) from KLOT Reporting Station
Overcast Overcast  
Wind Chill: 46°   Ceiling: 4800
Heat Index: 49°   Visibility: 10mi
Dew Point: 42°   Wind: 8mph
Humidity: 76%   Direction: 360°N
Pressure: 30.06"   Gusts: NA
Location:  41.62°N, 87.85°W
Report Text: KLOT 211015Z AUTO 36007KT 10SM OVC048 10/06 A3006 RMK AO2 T00960056
Loading
Personal Weather Stations






























Interactive Weather Map New forecast layout! Learn more

10-Day Weather Forecast

Advertisements
Track Severe Weather on mobile